Auxerre-Branches Airport


Codes: LFLA/AUF
Name: Auxerre-Branches Airport
City: Auxerre/Branches
Country: France
Elevation: 523 ft.

Photos at Auxerre-Branches Airport


   Photos courtesy of SpottingLog. You can add your own sightings and photos by signing up for a free trial today.



No photos found.

Weather at Auxerre-Branches Airport


Time (UTC)DescriptionTempratureWindCloud coverageVisibilityPressureHumidity
25-Jun-2024 15:00Clear Sky25°C9 mph, NE7%10000m1012hPa67%
25-Jun-2024 18:00Clear Sky24°C9 mph, NE8%10000m1011hPa77%
25-Jun-2024 21:00Clear Sky19°C4 mph, NE0%10000m1011hPa91%
26-Jun-2024 00:00Clear Sky18°C4 mph, NE1%10000m1010hPa93%
26-Jun-2024 03:00Clear Sky17°C4 mph, N1%10000m1010hPa94%
26-Jun-2024 06:00Clear Sky19°C2 mph, N1%10000m1011hPa88%
26-Jun-2024 09:00Clear Sky23°C7 mph, NE1%10000m1010hPa73%
26-Jun-2024 12:00Scattered Clouds26°C4 mph, NE42%10000m1010hPa64%
26-Jun-2024 15:00Light Rain26°C4 mph, N99%10000m1010hPa64%
26-Jun-2024 18:00Broken Clouds25°C4 mph, N76%10000m1010hPa80%
26-Jun-2024 21:00Clear Sky21°C0 mph, SE4%10000m1011hPa84%
27-Jun-2024 00:00Clear Sky19°C2 mph, SW2%10000m1011hPa88%
27-Jun-2024 03:00Clear Sky18°C2 mph, S6%10000m1010hPa90%
27-Jun-2024 06:00Scattered Clouds20°C4 mph, S42%10000m1011hPa89%
27-Jun-2024 09:00Light Rain24°C4 mph, SW100%10000m1011hPa79%
27-Jun-2024 12:00Overcast Clouds27°C9 mph, W86%10000m1011hPa59%
27-Jun-2024 15:00Overcast Clouds28°C7 mph, SW99%10000m1011hPa59%
27-Jun-2024 18:00Light Rain25°C4 mph, SW92%10000m1011hPa81%
27-Jun-2024 21:00Light Rain19°C4 mph, W26%5156m1013hPa93%
28-Jun-2024 00:00Light Rain19°C4 mph, W47%10000m1014hPa94%
28-Jun-2024 03:00Broken Clouds16°C4 mph, N61%10000m1015hPa94%
28-Jun-2024 06:00Broken Clouds16°C4 mph, N81%10000m1017hPa93%
28-Jun-2024 09:00Overcast Clouds19°C7 mph, NE95%10000m1018hPa77%
28-Jun-2024 12:00Overcast Clouds22°C4 mph, NE86%10000m1017hPa72%
28-Jun-2024 15:00Overcast Clouds23°C4 mph, NE100%10000m1017hPa71%
28-Jun-2024 18:00Overcast Clouds22°C9 mph, NE88%10000m1016hPa81%
28-Jun-2024 21:00Few Clouds18°C7 mph, NE20%10000m1015hPa89%
29-Jun-2024 00:00Broken Clouds17°C7 mph, NE53%10000m1013hPa93%
29-Jun-2024 03:00Light Rain16°C7 mph, NE100%10000m1011hPa97%
29-Jun-2024 06:00Light Rain18°C7 mph, NE94%10000m1010hPa95%
29-Jun-2024 09:00Overcast Clouds23°C4 mph, SE99%10000m1009hPa83%
29-Jun-2024 12:00Overcast Clouds27°C9 mph, S98%10000m1007hPa64%
29-Jun-2024 15:00Light Rain26°C9 mph, S87%6729m1006hPa70%
29-Jun-2024 18:00Moderate Rain21°C11 mph, SW86%4150m1005hPa90%
29-Jun-2024 21:00Moderate Rain16°C16 mph, W100%5619m1009hPa97%
30-Jun-2024 00:00Light Rain14°C13 mph, W100%10000m1012hPa96%
30-Jun-2024 03:00Light Rain13°C4 mph, SW100%10000m1013hPa95%
30-Jun-2024 06:00Overcast Clouds15°C11 mph, SW89%10000m1013hPa94%
30-Jun-2024 09:00Broken Clouds17°C13 mph, SW72%10000m1013hPa73%
30-Jun-2024 12:00Broken Clouds19°C16 mph, SW78%10000m1013hPa62%